KISW/ISW METAR and TAF weather

Enter ICAO airport designator
Station Type Date Time Source
KISW METAR 2021/04/18 02:54 UTC NOAA

KISW 180254Z AUTO 28004KT 10SM OVC100 10/M02 A2994 RMK AO2 SLP144 T01001017 53003


Station Type Date Time Source
KISW Decoded METAR 2021/04/18 02:54 UTC NOAA

WI RAPIDS ALEXANDER FIELD, WI, United States (KISW) 44-22N 89-50W 307M
Apr 17, 2021 - 10:54 PM EDT / 2021.04.18 0254 UTC
Wind: from the W (280 degrees) at 5 MPH (4 KT):0
Visibility: 10 mile(s):0
Sky conditions: overcast
Temperature: 50.0 F (10.0 C)
Dew Point: 28.9 F (-1.7 C)
Relative Humidity: 43%
Pressure (altimeter): 29.94 in. Hg (1013 hPa)
Pressure tendency: 0.01 inches (0.3 hPa) higher than three hours ago
ob: KISW 180254Z AUTO 28004KT 10SM OVC100 10/M02 A2994 RMK AO2 SLP144 T01001017 53003
cycle: 3

Station Type Date Time Source
KISW TAF UTC NOAA

Error!

Example: see airport list